Time;durP1;ratioP1;P1;durP2;ratioP2;P2;SDS_P1;SDS_P2;PMS_P1;PMS_P2;Temp;Humidity;BMP_temperature;BMP_pressure;BME280_temperature;BME280_humidity;BME280_pressure;Samples;Min_cycle;Max_cycle;Signal;HPM_P1;HPM_P2
2022/11/01 00:01:04;;;;;;;;;;;;;;;14.80;79.96;100800.13;5049032;28;19925;-61
2022/11/01 00:03:29;;;;;;;;;;;;;;;14.83;80.46;100796.22;5049759;28;19920;-61
2022/11/01 00:05:54;;;;;;;;;;;;;;;14.83;80.53;100788.19;5055947;28;20303;-61
2022/11/01 00:08:20;;;;;;;;;;;;;;;14.86;80.70;100785.94;5046748;28;19917;-61
2022/11/01 00:10:45;;;;;;;;;;;;;;;14.90;80.99;100785.53;5047946;28;19978;-61
2022/11/01 00:13:10;;;;;;;;;;;;;;;14.93;81.06;100780.63;5047536;28;19920;-61
2022/11/01 00:15:35;;;;;;;;;;;;;;;14.97;80.87;100775.69;5047844;28;19928;-61
2022/11/01 00:18:00;;;;;;;;;;;;;;;15.00;80.85;100772.59;5049905;28;19967;-61
2022/11/01 00:20:25;;;;;;;;;;;;;;;15.01;81.05;100760.88;5045890;28;19928;-61
2022/11/01 00:22:51;;;;;;;;;;;;;;;15.02;81.03;100765.22;5050205;28;19913;-60
2022/11/01 00:25:16;;;;;;;;;;;;;;;15.04;81.15;100766.69;5058457;28;20388;-61
2022/11/01 00:27:41;;;;;;;;;;;;;;;15.05;80.98;100765.66;5049329;28;19920;-61
2022/11/01 00:30:06;;;;;;;;;;;;;;;15.09;80.97;100769.56;5052833;28;20470;-61
2022/11/01 00:32:31;;;;;;;;;;;;;;;15.12;81.10;100765.66;5055717;28;19916;-61
2022/11/01 00:34:57;;;;;;;;;;;;;;;15.14;81.56;100767.13;5051553;28;20505;-61
2022/11/01 00:37:22;;;;;;;;;;;;;;;15.18;81.67;100768.34;5050861;28;19920;-61
2022/11/01 00:39:47;;;;;;;;;;;;;;;15.25;81.83;100756.84;5049240;28;20443;-61
2022/11/01 00:42:12;;;;;;;;;;;;;;;15.32;82.18;100749.63;5050313;28;19921;-61
2022/11/01 00:44:37;;;;;;;;;;;;;;;15.42;82.49;100758.09;5050413;28;19939;-61
2022/11/01 00:47:02;;;;;;;;;;;;;;;15.57;82.29;100756.03;5046091;28;19929;-61
2022/11/01 00:49:27;;;;;;;;;;;;;;;15.69;82.08;100757.13;5050667;28;19916;-61
2022/11/01 00:51:53;;;;;;;;;;;;;;;15.78;82.03;100749.69;5049987;28;19956;-61
2022/11/01 00:54:18;;;;;;;;;;;;;;;15.85;81.93;100763.91;5051516;28;19921;-61
2022/11/01 00:56:43;;;;;;;;;;;;;;;15.94;81.60;100754.66;5050320;28;19971;-61
2022/11/01 00:59:08;;;;;;;;;;;;;;;15.99;81.40;100751.34;5057828;28;19999;-61
2022/11/01 01:01:33;;;;;;;;;;;;;;;16.00;81.44;100747.63;5048449;28;20565;-61
2022/11/01 01:03:59;;;;;;;;;;;;;;;15.96;81.59;100739.19;5046511;28;20003;-61
2022/11/01 01:06:24;;;;;;;;;;;;;;;16.05;81.23;100745.16;5054362;28;20006;-61
2022/11/01 01:08:49;;;;;;;;;;;;;;;16.12;81.32;100748.63;5050227;28;19917;-61
2022/11/01 01:11:14;;;;;;;;;;;;;;;16.15;80.98;100742.84;5058258;28;19916;-61
2022/11/01 01:13:40;;;;;;;;;;;;;;;16.14;81.01;100746.56;5050419;28;19921;-61
2022/11/01 01:16:09;;;;;;;;;;;;;;;16.16;81.18;100747.16;5050404;28;19943;-61
2022/11/01 01:18:34;;;;;;;;;;;;;;;16.16;81.05;100733.78;5055653;28;20460;-61
2022/11/01 01:21:00;;;;;;;;;;;;;;;16.16;81.12;100725.75;5048064;28;19920;-61
2022/11/01 01:23:25;;;;;;;;;;;;;;;16.14;80.90;100730.50;5050017;28;19917;-61
2022/11/01 01:25:50;;;;;;;;;;;;;;;16.10;80.92;100730.09;5046721;28;19917;-61
2022/11/01 01:28:16;;;;;;;;;;;;;;;16.09;81.49;100732.97;5049666;28;19928;-61
2022/11/01 01:30:41;;;;;;;;;;;;;;;16.13;81.31;100741.41;5053053;28;20391;-61
2022/11/01 01:33:06;;;;;;;;;;;;;;;16.16;81.17;100747.16;5050033;28;19924;-60
2022/11/01 01:35:31;;;;;;;;;;;;;;;16.17;81.47;100745.31;5049870;28;19986;-61
2022/11/01 01:37:56;;;;;;;;;;;;;;;16.19;81.47;100743.25;5048203;28;19928;-61
2022/11/01 01:40:22;;;;;;;;;;;;;;;16.22;81.42;100741.00;5048120;28;19916;-61
2022/11/01 01:42:47;;;;;;;;;;;;;;;16.25;81.63;100735.22;5043283;28;20357;-60
2022/11/01 01:45:15;;;;;;;;;;;;;;;16.27;81.66;100745.72;5051680;28;19921;-59
2022/11/01 01:47:42;;;;;;;;;;;;;;;16.30;81.55;100740.75;5047971;28;19970;-60
2022/11/01 01:50:09;;;;;;;;;;;;;;;16.34;81.61;100728.59;5050089;28;19924;-60
2022/11/01 01:52:41;;;;;;;;;;;;;;;16.37;81.40;100725.47;5046329;28;19921;-60
2022/11/01 01:55:07;;;;;;;;;;;;;;;16.38;81.60;100732.47;5050769;28;20358;-60
2022/11/01 01:57:33;;;;;;;;;;;;;;;16.42;81.34;100719.47;5056244;28;19999;-60
2022/11/01 01:59:59;;;;;;;;;;;;;;;16.40;81.68;100717.00;5047277;28;19921;-60
2022/11/01 02:02:24;;;;;;;;;;;;;;;16.41;81.60;100729.38;5044854;28;19924;-61
2022/11/01 02:04:54;;;;;;;;;;;;;;;16.45;81.66;100720.91;5044199;28;19913;-60
2022/11/01 02:07:19;;;;;;;;;;;;;;;16.48;81.63;100718.66;5051395;28;19917;-60
2022/11/01 02:09:45;;;;;;;;;;;;;;;16.49;81.80;100720.31;5049778;28;19931;-60
2022/11/01 02:12:11;;;;;;;;;;;;;;;16.50;81.61;100724.63;5047885;28;19916;-60
2022/11/01 02:14:37;;;;;;;;;;;;;;;16.50;81.50;100724.63;5042793;28;19925;-60
2022/11/01 02:17:20;;;;;;;;;;;;;;;16.49;81.83;100722.16;5049214;28;19962;-60
2022/11/01 02:20:04;;;;;;;;;;;;;;;16.53;81.71;100718.00;5046953;28;20004;-60
2022/11/01 02:22:29;;;;;;;;;;;;;;;16.51;81.47;100726.28;5047036;28;19990;-61
2022/11/01 02:25:01;;;;;;;;;;;;;;;16.54;81.63;100723.16;5047388;28;19921;-60
2022/11/01 02:27:30;;;;;;;;;;;;;;;16.53;81.70;100734.09;5042033;28;19925;-61
2022/11/01 02:30:05;;;;;;;;;;;;;;;16.55;81.49;100740.06;5046356;28;20368;-60
2022/11/01 02:32:36;;;;;;;;;;;;;;;16.51;81.79;100730.81;5047585;28;19928;-61
2022/11/01 02:35:19;;;;;;;;;;;;;;;16.48;81.72;100736.56;5048630;28;20047;-60
2022/11/01 02:37:50;;;;;;;;;;;;;;;16.46;81.93;100736.78;5043659;28;20574;-61
2022/11/01 02:40:22;;;;;;;;;;;;;;;16.44;81.83;100733.50;5048300;28;20469;-60
2022/11/01 02:42:50;;;;;;;;;;;;;;;16.43;81.95;100745.25;5045352;28;19917;-60
2022/11/01 02:45:27;;;;;;;;;;;;;;;16.43;81.75;100743.38;5048700;28;19996;-60
2022/11/01 02:47:54;;;;;;;;;;;;;;;16.46;81.88;100742.16;5041373;28;20483;-60
2022/11/01 02:50:20;;;;;;;;;;;;;;;16.47;81.49;100751.00;5046764;28;20000;-61
2022/11/01 02:52:46;;;;;;;;;;;;;;;16.47;81.48;100748.31;5046055;28;20036;-61
2022/11/01 02:55:28;;;;;;;;;;;;;;;16.48;81.34;100753.50;5050788;28;19928;-60
2022/11/01 02:57:54;;;;;;;;;;;;;;;16.53;80.85;100734.09;5042098;28;20018;-60
2022/11/01 03:00:27;;;;;;;;;;;;;;;16.50;80.36;100742.56;5047208;28;20523;-60
2022/11/01 03:02:59;;;;;;;;;;;;;;;16.49;80.11;100739.06;5043369;28;19947;-60
2022/11/01 03:05:25;;;;;;;;;;;;;;;16.48;79.89;100741.94;5050096;28;19936;-60
2022/11/01 03:07:51;;;;;;;;;;;;;;;16.47;79.79;100743.78;5049456;28;19917;-59
2022/11/01 03:10:19;;;;;;;;;;;;;;;16.48;79.98;100741.94;5046731;28;20019;-60
2022/11/01 03:12:57;;;;;;;;;;;;;;;16.45;79.31;100753.91;5048674;28;19924;-60
2022/11/01 03:15:27;;;;;;;;;;;;;;;16.55;78.84;100765.03;5043567;28;19921;-60
2022/11/01 03:18:00;;;;;;;;;;;;;;;16.56;78.48;100765.84;5044503;28;20082;-61
2022/11/01 03:20:58;;;;;;;;;;;;;;;16.52;78.10;100768.13;5046187;28;19932;-60
2022/11/01 03:23:27;;;;;;;;;;;;;;;16.46;77.92;100770.81;5033633;28;19924;-59
2022/11/01 03:25:54;;;;;;;;;;;;;;;16.44;77.83;100779.06;5044258;28;19928;-60
2022/11/01 03:28:26;;;;;;;;;;;;;;;16.38;77.79;100794.13;5049448;28;19923;-60
2022/11/01 03:31:01;;;;;;;;;;;;;;;16.32;77.80;100789.63;5051855;28;19920;-61
2022/11/01 03:33:27;;;;;;;;;;;;;;;16.34;77.15;100795.59;5040281;28;19917;-60
2022/11/01 03:35:55;;;;;;;;;;;;;;;16.34;76.63;100805.47;5046816;28;20299;-60
2022/11/01 03:38:23;;;;;;;;;;;;;;;16.33;76.30;100806.53;5047835;28;20324;-60
2022/11/01 03:40:51;;;;;;;;;;;;;;;16.26;76.34;100819.94;5041755;28;20010;-59
2022/11/01 03:43:18;;;;;;;;;;;;;;;16.24;75.13;100811.28;5046315;28;20491;-60
2022/11/01 03:45:44;;;;;;;;;;;;;;;16.23;74.44;100822.22;5047764;28;19960;-59
2022/11/01 03:48:09;;;;;;;;;;;;;;;16.15;72.28;100825.09;5047684;28;20006;-59
2022/11/01 03:50:34;;;;;;;;;;;;;;;16.11;70.78;100822.81;5045486;28;20560;-59
2022/11/01 03:53:00;;;;;;;;;;;;;;;16.00;69.01;100828.81;5046787;28;19917;-59
2022/11/01 03:55:25;;;;;;;;;;;;;;;15.97;68.06;100842.63;5047460;28;19929;-59
2022/11/01 03:57:54;;;;;;;;;;;;;;;15.91;67.55;100850.66;5054021;28;19913;-60
2022/11/01 04:00:24;;;;;;;;;;;;;;;15.78;66.65;100844.25;5047847;28;19923;-60
2022/11/01 04:02:50;;;;;;;;;;;;;;;15.69;65.78;100861.53;5045735;28;20457;-59
2022/11/01 04:05:16;;;;;;;;;;;;;;;15.58;65.73;100856.75;5048218;28;19952;-60
2022/11/01 04:07:42;;;;;;;;;;;;;;;15.48;65.51;100867.84;5049301;28;19970;-59
2022/11/01 04:10:07;;;;;;;;;;;;;;;15.35;65.62;100875.03;5052682;28;19920;-59
2022/11/01 04:12:32;;;;;;;;;;;;;;;15.21;65.75;100884.84;5044730;28;19924;-58
2022/11/01 04:20:35;;;;;;;;;;;;;;;15.04;66.31;100900.41;5045786;28;19990;-58
2022/11/01 04:23:00;;;;;;;;;;;;;;;15.04;66.25;100908.44;5049609;28;20399;-59
2022/11/01 04:25:25;;;;;;;;;;;;;;;14.99;66.17;100918.06;5044334;28;19924;-59
2022/11/01 04:27:50;;;;;;;;;;;;;;;14.89;66.59;100921.09;5045602;28;20003;-59
2022/11/01 04:30:16;;;;;;;;;;;;;;;14.83;67.06;100929.91;5048862;28;19967;-59
2022/11/01 04:32:42;;;;;;;;;;;;;;;14.78;67.40;100927.00;5048401;28;19924;-59
2022/11/01 04:35:10;;;;;;;;;;;;;;;14.73;67.27;100934.75;5042687;28;19925;-60
2022/11/01 04:37:35;;;;;;;;;;;;;;;14.70;67.84;100943.16;5036267;28;19921;-59
2022/11/01 04:40:00;;;;;;;;;;;;;;;14.67;67.59;100962.28;5050333;28;19970;-59
2022/11/01 04:42:25;;;;;;;;;;;;;;;14.63;68.02;100950.31;5043603;28;20152;-59
2022/11/01 04:44:50;;;;;;;;;;;;;;;14.54;68.14;100946.97;5047640;28;19963;-59
2022/11/01 04:47:16;;;;;;;;;;;;;;;14.53;68.31;100977.38;5047262;28;20007;-60
2022/11/01 04:49:41;;;;;;;;;;;;;;;14.49;68.27;100973.44;5047168;28;19924;-60
2022/11/01 04:52:06;;;;;;;;;;;;;;;14.43;68.28;100980.38;5046628;28;19968;-60
2022/11/01 04:54:32;;;;;;;;;;;;;;;14.41;68.14;100977.03;5051686;28;20481;-59
2022/11/01 04:56:57;;;;;;;;;;;;;;;14.36;68.46;100973.28;5047512;28;20303;-59
2022/11/01 04:59:22;;;;;;;;;;;;;;;14.36;68.37;100994.66;5042057;28;21065;-60
2022/11/01 05:01:47;;;;;;;;;;;;;;;14.30;68.59;100998.94;5046750;28;20447;-59
2022/11/01 05:04:13;;;;;;;;;;;;;;;14.25;68.73;101006.69;5051051;28;20507;-60
2022/11/01 05:06:38;;;;;;;;;;;;;;;14.22;68.86;101007.91;5051984;28;19913;-58
2022/11/01 05:09:03;;;;;;;;;;;;;;;14.19;68.92;101018.97;5044492;28;19920;-60
2022/11/01 05:11:28;;;;;;;;;;;;;;;14.13;69.09;101026.88;5043633;28;20058;-60
2022/11/01 05:13:53;;;;;;;;;;;;;;;14.10;69.05;101019.25;5056110;28;19913;-59
2022/11/01 05:16:19;;;;;;;;;;;;;;;14.05;68.99;101016.34;5050186;28;20367;-60
2022/11/01 05:18:44;;;;;;;;;;;;;;;14.02;69.04;101016.72;5048298;28;19917;-59
2022/11/01 05:21:09;;;;;;;;;;;;;;;13.95;69.23;101022.81;5049926;28;19917;-59
2022/11/01 05:23:34;;;;;;;;;;;;;;;13.88;68.99;101029.09;5049651;28;20327;-59
2022/11/01 05:26:00;;;;;;;;;;;;;;;13.83;69.07;101051.00;5046467;28;19940;-60
2022/11/01 05:28:25;;;;;;;;;;;;;;;13.81;68.21;101036.19;5044403;28;20003;-59
2022/11/01 05:30:50;;;;;;;;;;;;;;;13.77;67.86;101061.59;5052342;28;19924;-60
2022/11/01 05:33:15;;;;;;;;;;;;;;;13.70;67.83;101056.19;5055469;28;20392;-59
2022/11/01 05:35:40;;;;;;;;;;;;;;;13.68;67.00;101046.69;5046384;28;19924;-60
2022/11/01 05:38:06;;;;;;;;;;;;;;;13.67;67.21;101061.06;5050919;28;19913;-59
2022/11/01 05:40:31;;;;;;;;;;;;;;;13.64;67.02;101056.94;5049738;28;19917;-59
2022/11/01 05:42:57;;;;;;;;;;;;;;;13.59;67.28;101068.16;5054587;28;19917;-59
2022/11/01 05:45:22;;;;;;;;;;;;;;;13.55;67.35;101060.69;5052370;28;19917;-59
2022/11/01 05:47:47;;;;;;;;;;;;;;;13.54;67.61;101077.72;5050786;28;20420;-60
2022/11/01 05:50:14;;;;;;;;;;;;;;;13.50;67.85;101069.25;5042547;28;19913;-60
2022/11/01 05:52:39;;;;;;;;;;;;;;;13.47;67.67;101072.28;5051125;28;20350;-59
2022/11/01 05:55:05;;;;;;;;;;;;;;;13.44;68.09;101077.16;5051069;28;20384;-59
2022/11/01 05:57:30;;;;;;;;;;;;;;;13.40;68.13;101082.03;5041660;28;20039;-60
2022/11/01 05:59:55;;;;;;;;;;;;;;;13.33;68.44;101084.63;5046432;28;19920;-59
2022/11/01 06:02:21;;;;;;;;;;;;;;;13.25;68.68;101090.00;5045600;28;19916;-59
2022/11/01 06:04:46;;;;;;;;;;;;;;;13.21;68.74;101077.22;5047611;28;19999;-60
2022/11/01 06:07:11;;;;;;;;;;;;;;;13.16;69.16;101077.75;5048511;28;20365;-60
2022/11/01 06:09:36;;;;;;;;;;;;;;;13.12;69.51;101092.44;5061400;28;19920;-59
2022/11/01 06:12:01;;;;;;;;;;;;;;;13.09;69.86;101087.47;5048683;28;20295;-59
2022/11/01 06:14:26;;;;;;;;;;;;;;;13.05;69.97;101102.19;5051737;28;19917;-60
2022/11/01 06:16:52;;;;;;;;;;;;;;;13.02;70.17;101110.56;5048727;28;19924;-60
2022/11/01 06:19:17;;;;;;;;;;;;;;;13.02;70.13;101111.38;5056441;28;19920;-59
2022/11/01 06:21:42;;;;;;;;;;;;;;;13.03;69.92;101115.69;5047490;28;20471;-59
2022/11/01 06:24:09;;;;;;;;;;;;;;;13.03;69.30;101117.53;5049363;28;19928;-59
2022/11/01 06:26:34;;;;;;;;;;;;;;;12.98;69.40;101131.38;5050317;28;19921;-59
2022/11/01 06:29:01;;;;;;;;;;;;;;;12.97;69.16;101128.91;5047588;28;20051;-59
2022/11/01 06:31:26;;;;;;;;;;;;;;;12.98;68.72;101139.38;5048629;28;19917;-59
2022/11/01 06:33:51;;;;;;;;;;;;;;;12.97;68.31;101139.56;5049040;28;19917;-59
2022/11/01 06:36:16;;;;;;;;;;;;;;;12.96;68.09;101140.56;5045135;28;20516;-59
2022/11/01 06:38:41;;;;;;;;;;;;;;;12.96;67.37;101146.72;5040205;28;19925;-60
2022/11/01 06:41:07;;;;;;;;;;;;;;;13.00;66.94;101140.03;5036385;28;20082;-59
2022/11/01 06:43:32;;;;;;;;;;;;;;;13.02;67.30;101150.53;5047437;28;19917;-59
2022/11/01 06:45:58;;;;;;;;;;;;;;;12.91;67.06;101146.44;5037438;28;19979;-60
2022/11/01 06:48:23;;;;;;;;;;;;;;;12.87;67.33;101155.81;5038421;28;20477;-60
2022/11/01 06:50:49;;;;;;;;;;;;;;;12.82;67.86;101152.03;5045471;28;20012;-59
2022/11/01 06:53:14;;;;;;;;;;;;;;;12.77;68.07;101154.38;5048146;28;19913;-59
2022/11/01 06:55:39;;;;;;;;;;;;;;;12.72;68.18;101157.56;5050951;28;20407;-60
2022/11/01 06:58:05;;;;;;;;;;;;;;;12.74;68.53;101160.06;5048501;28;19942;-59
2022/11/01 07:00:30;;;;;;;;;;;;;;;12.69;69.05;101165.91;5047867;28;19963;-59
2022/11/01 07:02:59;;;;;;;;;;;;;;;12.64;69.32;101171.78;5054061;28;19916;-59
2022/11/01 07:05:25;;;;;;;;;;;;;;;12.63;69.55;101182.59;5048706;28;19917;-58
2022/11/01 07:07:50;;;;;;;;;;;;;;;12.62;70.11;101188.94;5048593;28;19919;-59
2022/11/01 07:10:15;;;;;;;;;;;;;;;12.61;70.34;101184.63;5046586;28;20400;-59
2022/11/01 07:12:40;;;;;;;;;;;;;;;12.64;70.42;101192.25;5050523;28;20122;-59
2022/11/01 07:15:06;;;;;;;;;;;;;;;12.62;70.29;101205.75;5048310;28;20273;-61
2022/11/01 07:17:31;;;;;;;;;;;;;;;12.63;70.15;101202.09;5042799;28;19984;-59
2022/11/01 07:19:56;;;;;;;;;;;;;;;12.63;70.38;101212.75;5049357;28;20377;-59
2022/11/01 07:22:21;;;;;;;;;;;;;;;12.60;69.94;101220.25;5046554;28;20014;-59
2022/11/01 07:24:46;;;;;;;;;;;;;;;12.60;70.25;101223.75;5048425;28;20281;-60
2022/11/01 07:27:12;;;;;;;;;;;;;;;12.59;69.89;101240.75;5048070;28;19916;-59
2022/11/01 07:29:40;;;;;;;;;;;;;;;12.62;69.63;101244.91;5050039;28;20023;-60
2022/11/01 07:32:05;;;;;;;;;;;;;;;12.63;69.81;101241.22;5048878;28;19912;-59
2022/11/01 07:34:30;;;;;;;;;;;;;;;12.64;69.51;101249.03;5047569;28;19924;-60
2022/11/01 07:36:56;;;;;;;;;;;;;;;12.64;69.71;101248.22;5053921;28;20347;-59
2022/11/01 07:39:21;;;;;;;;;;;;;;;12.64;69.61;101258.88;5047089;28;19956;-59
2022/11/01 07:41:46;;;;;;;;;;;;;;;12.64;69.58;101254.38;5050705;28;19970;-59
2022/11/01 07:44:12;;;;;;;;;;;;;;;12.66;69.76;101254.19;5045414;28;19921;-59
2022/11/01 07:46:37;;;;;;;;;;;;;;;12.65;69.72;101253.38;5043738;28;19999;-59
2022/11/01 07:49:02;;;;;;;;;;;;;;;12.63;69.66;101266.03;5047363;28;19924;-59
2022/11/01 07:51:27;;;;;;;;;;;;;;;12.66;69.40;101259.53;5042671;28;19982;-60
2022/11/01 07:53:53;;;;;;;;;;;;;;;12.64;69.56;101273.03;5047219;28;19921;-59
2022/11/01 07:56:20;;;;;;;;;;;;;;;12.66;69.37;101280.84;5053880;28;19916;-59
2022/11/01 07:58:45;;;;;;;;;;;;;;;12.66;69.72;101280.84;5050370;28;20438;-58
2022/11/01 08:01:10;;;;;;;;;;;;;;;12.66;69.69;101276.34;5047663;28;19952;-59
2022/11/01 08:03:36;;;;;;;;;;;;;;;12.64;69.71;101270.34;5046603;28;19921;-58
2022/11/01 08:06:01;;;;;;;;;;;;;;;12.64;69.62;101278.34;5048215;28;20538;-59
2022/11/01 08:08:26;;;;;;;;;;;;;;;12.62;69.44;101283.03;5044046;28;20300;-58
2022/11/01 08:10:51;;;;;;;;;;;;;;;12.63;69.63;101275.88;5061070;28;19913;-59
2022/11/01 08:13:18;;;;;;;;;;;;;;;12.63;69.33;101287.34;5047210;28;19916;-59
2022/11/01 08:15:43;;;;;;;;;;;;;;;12.65;69.44;101282.69;5048425;28;19920;-59
2022/11/01 08:18:09;;;;;;;;;;;;;;;12.65;69.34;101296.00;5054960;28;20307;-58
2022/11/01 08:20:34;;;;;;;;;;;;;;;12.66;69.49;101288.84;5043327;28;19917;-59
2022/11/01 08:22:59;;;;;;;;;;;;;;;12.67;69.22;101291.31;5054574;28;20384;-59
2022/11/01 08:25:25;;;;;;;;;;;;;;;12.68;69.42;101300.16;5047834;28;19913;-59
2022/11/01 08:27:50;;;;;;;;;;;;;;;12.70;69.15;101303.47;5045524;28;19913;-59
2022/11/01 08:30:16;;;;;;;;;;;;;;;12.70;68.99;101293.63;5051208;28;19913;-59
2022/11/01 08:32:42;;;;;;;;;;;;;;;12.72;68.87;101312.13;5049890;28;20052;-59
2022/11/01 08:35:07;;;;;;;;;;;;;;;12.73;69.21;101305.81;5050610;28;20023;-59
2022/11/01 08:37:33;;;;;;;;;;;;;;;12.75;68.89;101308.31;5053987;28;19919;-59
2022/11/01 08:39:58;;;;;;;;;;;;;;;12.78;69.04;101308.78;5054656;28;19990;-60
2022/11/01 08:42:23;;;;;;;;;;;;;;;12.77;68.90;101307.13;5046010;28;19931;-59
2022/11/01 08:44:48;;;;;;;;;;;;;;;12.77;68.94;101301.81;5052093;28;19916;-59
2022/11/01 08:47:13;;;;;;;;;;;;;;;12.78;68.54;101307.97;5046610;28;20003;-58
2022/11/01 08:49:39;;;;;;;;;;;;;;;12.81;68.91;101315.59;5050777;28;19927;-58
2022/11/01 08:52:04;;;;;;;;;;;;;;;12.83;68.76;101313.59;5056411;28;20008;-59
2022/11/01 08:54:30;;;;;;;;;;;;;;;12.84;68.80;101332.06;5047737;28;20317;-59
2022/11/01 08:56:55;;;;;;;;;;;;;;;12.86;68.30;101329.25;5045120;28;20451;-59
2022/11/01 08:59:20;;;;;;;;;;;;;;;12.87;68.55;101330.91;5050200;28;20152;-59
2022/11/01 09:01:46;;;;;;;;;;;;;;;12.90;68.39;101325.22;5051896;28;19955;-59
2022/11/01 09:04:11;;;;;;;;;;;;;;;12.91;68.56;101338.38;5049772;28;20396;-59
2022/11/01 09:06:36;;;;;;;;;;;;;;;12.91;68.12;101357.03;5052352;28;20425;-59
2022/11/01 09:09:02;;;;;;;;;;;;;;;12.95;68.64;101333.53;5051712;28;20000;-60
2022/11/01 09:11:27;;;;;;;;;;;;;;;12.97;68.15;101339.50;5049550;28;20000;-60
2022/11/01 09:13:53;;;;;;;;;;;;;;;12.99;68.16;101326.81;5047665;28;20031;-59
2022/11/01 09:16:18;;;;;;;;;;;;;;;13.05;67.92;101338.66;5054532;28;20526;-59
2022/11/01 09:18:44;;;;;;;;;;;;;;;13.05;67.91;101352.00;5051591;28;19913;-58
2022/11/01 09:21:09;;;;;;;;;;;;;;;13.04;67.70;101348.50;5045165;28;19920;-59
2022/11/01 09:23:35;;;;;;;;;;;;;;;13.06;67.99;101345.66;5051104;28;19925;-59
2022/11/01 09:26:01;;;;;;;;;;;;;;;13.08;67.72;101354.31;5055001;28;19931;-59
2022/11/01 09:28:28;;;;;;;;;;;;;;;13.09;67.86;101359.47;5051033;28;19921;-59
2022/11/01 09:30:53;;;;;;;;;;;;;;;13.13;68.15;101376.78;5047916;28;20008;-60
2022/11/01 09:33:22;;;;;;;;;;;;;;;13.15;68.00;101358.75;5051246;28;20015;-59
2022/11/01 09:35:49;;;;;;;;;;;;;;;13.18;68.05;101368.28;5049315;28;19924;-59
2022/11/01 09:38:14;;;;;;;;;;;;;;;13.21;68.21;101363.41;5046088;28;20462;-59
2022/11/01 09:40:44;;;;;;;;;;;;;;;13.25;68.22;101382.56;5049879;28;19995;-59
2022/11/01 09:43:13;;;;;;;;;;;;;;;13.25;67.93;101382.56;5045779;28;19924;-59
2022/11/01 09:45:38;;;;;;;;;;;;;;;13.27;67.93;101385.88;5047893;28;20417;-58
2022/11/01 09:48:04;;;;;;;;;;;;;;;13.28;68.13;101396.38;5044910;28;20023;-58
2022/11/01 09:50:33;;;;;;;;;;;;;;;13.31;68.20;101389.91;5047896;28;20395;-59
2022/11/01 09:52:59;;;;;;;;;;;;;;;13.32;67.62;101404.91;5050383;28;20418;-60
2022/11/01 09:55:39;;;;;;;;;;;;;;;13.33;67.92;101412.72;5059878;28;19995;-59
2022/11/01 09:58:23;;;;;;;;;;;;;;;13.37;67.81;101413.19;5049023;28;20408;-59
2022/11/01 10:00:58;;;;;;;;;;;;;;;13.43;68.01;101411.66;5049435;28;19963;-58
2022/11/01 10:03:32;;;;;;;;;;;;;;;13.45;67.84;101426.50;5049103;28;19916;-59
2022/11/01 10:06:00;;;;;;;;;;;;;;;13.46;67.67;101430.00;5046549;28;20424;-60
2022/11/01 10:08:46;;;;;;;;;;;;;;;13.50;67.65;101441.97;5049464;28;20348;-59
2022/11/01 10:11:33;;;;;;;;;;;;;;;13.56;68.08;101433.25;5055473;28;19916;-59
2022/11/01 10:14:06;;;;;;;;;;;;;;;13.62;67.77;101433.41;5049677;28;19921;-60
2022/11/01 10:16:36;;;;;;;;;;;;;;;13.66;68.11;101436.56;5046043;28;19971;-59
2022/11/01 10:19:03;;;;;;;;;;;;;;;13.64;67.76;101433.22;5051697;28;19916;-60
2022/11/01 10:21:33;;;;;;;;;;;;;;;13.73;67.93;101432.16;5048689;28;19920;-59
2022/11/01 10:24:01;;;;;;;;;;;;;;;13.80;67.84;101435.78;5049251;28;19920;-59
2022/11/01 10:26:27;;;;;;;;;;;;;;;13.84;67.56;101438.94;5051634;28;19920;-60
2022/11/01 10:29:12;;;;;;;;;;;;;;;13.89;67.80;101441.91;5048907;28;20632;-59
2022/11/01 10:31:40;;;;;;;;;;;;;;;13.94;67.65;101437.69;5054378;28;19917;-59
2022/11/01 10:34:22;;;;;;;;;;;;;;;14.00;67.83;101438.81;5044633;28;20355;-60
2022/11/01 10:36:48;;;;;;;;;;;;;;;14.05;67.23;101435.59;5050773;28;19924;-59
2022/11/01 10:39:24;;;;;;;;;;;;;;;14.11;67.21;101441.06;5046853;28;19951;-59
2022/11/01 10:41:50;;;;;;;;;;;;;;;14.18;67.52;101446.53;5048142;28;19917;-60
2022/11/01 10:44:19;;;;;;;;;;;;;;;14.22;67.25;101439.81;5047666;28;20443;-60
2022/11/01 10:46:46;;;;;;;;;;;;;;;14.23;66.98;101430.81;5046891;28;19917;-59
2022/11/01 10:49:26;;;;;;;;;;;;;;;14.29;66.78;101446.09;5043787;28;20027;-59
2022/11/01 10:51:53;;;;;;;;;;;;;;;14.29;66.57;101446.09;5044512;28;19932;-60
2022/11/01 10:54:21;;;;;;;;;;;;;;;14.31;66.31;101437.91;5049020;28;20410;-60
2022/11/01 10:56:49;;;;;;;;;;;;;;;14.29;65.89;101443.44;5048558;28;19920;-59
2022/11/01 10:59:16;;;;;;;;;;;;;;;14.34;65.69;101435.69;5046372;28;20372;-60
2022/11/01 11:01:42;;;;;;;;;;;;;;;14.39;65.66;101440.50;5047355;28;20399;-59
2022/11/01 11:04:11;;;;;;;;;;;;;;;14.43;65.52;101445.34;5046570;28;20014;-59
2022/11/01 11:06:38;;;;;;;;;;;;;;;14.51;66.06;101449.78;5048191;28;20368;-59
2022/11/01 11:09:03;;;;;;;;;;;;;;;14.56;65.91;101442.06;5046197;28;20034;-61
2022/11/01 11:11:34;;;;;;;;;;;;;;;14.61;65.77;101445.00;5047846;28;19920;-59
2022/11/01 11:14:01;;;;;;;;;;;;;;;14.67;65.31;101443.44;5048031;28;19924;-59
2022/11/01 11:16:35;;;;;;;;;;;;;;;14.67;65.22;101441.59;5048427;28;19917;-59
2022/11/01 11:19:07;;;;;;;;;;;;;;;14.73;65.05;101440.03;5049419;28;19958;-60
2022/11/01 11:21:35;;;;;;;;;;;;;;;14.77;64.62;101425.31;5047795;28;19928;-59
2022/11/01 11:24:01;;;;;;;;;;;;;;;14.85;65.37;101435.91;5043962;28;19917;-60
2022/11/01 11:26:26;;;;;;;;;;;;;;;14.95;65.29;101433.78;5045149;28;20403;-59
2022/11/01 11:28:53;;;;;;;;;;;;;;;15.05;65.10;101437.03;5047343;28;19923;-59
2022/11/01 11:31:27;;;;;;;;;;;;;;;15.18;64.42;101433.69;5047132;28;19917;-59
2022/11/01 11:33:54;;;;;;;;;;;;;;;15.22;63.92;101434.13;5043527;28;20404;-59
2022/11/01 11:36:28;;;;;;;;;;;;;;;15.22;64.07;101437.63;5046050;28;19970;-59
2022/11/01 11:38:54;;;;;;;;;;;;;;;15.27;63.39;101439.75;5045094;28;20015;-59
2022/11/01 11:41:46;;;;;;;;;;;;;;;15.26;63.20;101435.41;5046350;28;20046;-61
2022/11/01 11:44:32;;;;;;;;;;;;;;;15.31;63.04;101441.88;5048522;28;19936;-60
2022/11/01 11:46:57;;;;;;;;;;;;;;;15.32;63.03;101432.00;5040306;28;19913;-60
2022/11/01 11:49:26;;;;;;;;;;;;;;;15.38;63.36;101431.25;5047006;28;19923;-60
2022/11/01 11:51:52;;;;;;;;;;;;;;;15.46;63.23;101439.19;5046311;28;19928;-59
2022/11/01 11:54:20;;;;;;;;;;;;;;;15.62;62.98;101447.03;5046152;28;20057;-60
2022/11/01 11:56:46;;;;;;;;;;;;;;;15.74;62.44;101444.69;5044795;28;19917;-59
2022/11/01 11:59:21;;;;;;;;;;;;;;;15.73;62.08;101441.16;5042845;28;19932;-59
2022/11/01 12:01:47;;;;;;;;;;;;;;;15.89;62.23;101444.59;5045158;28;19942;-59
2022/11/01 12:04:15;;;;;;;;;;;;;;;16.00;61.89;101447.63;5047901;28;20364;-59
2022/11/01 12:06:42;;;;;;;;;;;;;;;16.00;61.13;101444.94;5048127;28;19913;-59
2022/11/01 12:09:27;;;;;;;;;;;;;;;16.08;61.58;101447.50;5046885;28;20419;-60
2022/11/01 12:11:52;;;;;;;;;;;;;;;16.09;61.07;101445.66;5049479;28;19932;-59
2022/11/01 12:14:20;;;;;;;;;;;;;;;16.11;60.98;101443.59;5053314;28;20374;-58
2022/11/01 12:16:45;;;;;;;;;;;;;;;16.17;60.66;101436.63;5054614;28;20344;-59
2022/11/01 12:19:24;;;;;;;;;;;;;;;16.21;60.73;101441.44;5061385;28;20007;-60
2022/11/01 12:21:50;;;;;;;;;;;;;;;16.31;59.96;101449.97;5054909;28;20273;-59
2022/11/01 12:24:26;;;;;;;;;;;;;;;16.15;59.86;101444.88;5051473;28;20007;-59
2022/11/01 12:26:56;;;;;;;;;;;;;;;16.06;60.33;101440.66;5048261;28;19932;-60
2022/11/01 12:29:33;;;;;;;;;;;;;;;15.97;60.48;101434.63;5050882;28;19916;-59
2022/11/01 12:32:18;;;;;;;;;;;;;;;15.89;60.61;101460.69;5059178;28;19923;-59
2022/11/01 12:34:44;;;;;;;;;;;;;;;15.94;61.10;101432.31;5045010;28;19921;-59
2022/11/01 12:37:16;;;;;;;;;;;;;;;15.99;60.66;101442.47;5052075;28;20403;-59
2022/11/01 12:39:44;;;;;;;;;;;;;;;16.04;60.37;101432.00;5049717;28;19967;-59
2022/11/01 12:42:13;;;;;;;;;;;;;;;16.24;61.07;101430.34;5045070;28;19974;-59